createdAt,value
2022-09-23T00:02:03.933Z,11.89
2022-09-23T00:04:36.856Z,11.89
2022-09-23T00:07:09.680Z,11.82
2022-09-23T00:09:43.380Z,11.69
2022-09-23T00:12:16.015Z,11.62
2022-09-23T00:14:49.639Z,11.53
2022-09-23T00:17:23.763Z,11.52
2022-09-23T00:19:55.960Z,11.52
2022-09-23T00:22:28.895Z,11.45
2022-09-23T00:25:02.350Z,11.39
2022-09-23T00:27:37.030Z,11.37
2022-09-23T00:30:11.871Z,11.31
2022-09-23T00:32:45.335Z,11.26
2022-09-23T00:35:18.523Z,11.25
2022-09-23T00:37:51.786Z,11.22
2022-09-23T00:40:25.233Z,11.20
2022-09-23T00:42:57.874Z,11.18
2022-09-23T00:45:31.430Z,11.18
2022-09-23T00:48:05.592Z,11.19
2022-09-23T00:50:43.646Z,11.17
2022-09-23T00:53:20.183Z,11.19
2022-09-23T00:55:57.877Z,11.18
2022-09-23T00:58:34.092Z,11.20
2022-09-23T01:01:07.463Z,11.26
2022-09-23T01:03:40.793Z,11.27
2022-09-23T01:06:14.498Z,11.23
2022-09-23T01:08:48.456Z,11.22
2022-09-23T01:11:38.464Z,11.16
2022-09-23T01:14:32.341Z,11.11
2022-09-23T01:17:24.675Z,11.06
2022-09-23T01:20:33.789Z,11.03
2022-09-23T01:23:37.188Z,10.99
2022-09-23T01:26:43.336Z,10.95
2022-09-23T01:29:53.776Z,10.92
2022-09-23T01:33:00.772Z,10.90
2022-09-23T01:36:05.719Z,10.88
2022-09-23T01:38:57.319Z,10.85
2022-09-23T01:41:40.982Z,10.86
2022-09-23T01:44:34.649Z,10.93
2022-09-23T01:47:14.900Z,11.01
2022-09-23T01:50:06.182Z,11.02
2022-09-23T01:52:43.790Z,11.04
2022-09-23T01:55:24.172Z,11.04
2022-09-23T01:58:02.974Z,11.07
2022-09-23T02:00:41.025Z,11.08
2022-09-23T02:03:18.695Z,11.02
2022-09-23T02:05:58.023Z,10.94
2022-09-23T02:08:41.097Z,10.84
2022-09-23T02:11:16.392Z,10.77
2022-09-23T02:13:56.994Z,10.73
2022-09-23T02:16:48.590Z,10.69
2022-09-23T02:19:42.140Z,10.68
2022-09-23T02:22:31.356Z,10.64
2022-09-23T02:25:04.217Z,10.61
2022-09-23T02:27:57.397Z,10.61
2022-09-23T02:30:33.612Z,10.61
2022-09-23T02:33:13.562Z,10.59
2022-09-23T02:36:08.442Z,10.60
2022-09-23T02:38:54.094Z,10.58
2022-09-23T02:41:37.520Z,10.59
2022-09-23T02:44:13.873Z,10.59
2022-09-23T02:46:47.219Z,10.55
2022-09-23T02:49:33.057Z,10.50
2022-09-23T02:52:07.970Z,10.47
2022-09-23T02:54:41.091Z,10.43
2022-09-23T02:57:14.837Z,10.43
2022-09-23T02:59:47.595Z,10.42
2022-09-23T03:02:56.316Z,10.37
2022-09-23T03:05:36.925Z,10.31
2022-09-23T03:08:49.102Z,10.31
2022-09-23T03:11:22.498Z,10.32
2022-09-23T03:14:30.847Z,10.31
2022-09-23T03:17:20.362Z,10.31
2022-09-23T03:20:09.977Z,10.30
2022-09-23T03:22:46.671Z,10.28
2022-09-23T03:25:22.782Z,10.27
2022-09-23T03:27:58.790Z,10.28
2022-09-23T03:30:34.744Z,10.25
2022-09-23T03:33:10.637Z,10.24
2022-09-23T03:36:13.832Z,10.24
2022-09-23T03:38:51.218Z,10.28
2022-09-23T03:41:31.580Z,10.31
2022-09-23T03:44:04.646Z,10.34
2022-09-23T03:46:38.384Z,10.36
2022-09-23T03:49:32.868Z,10.39
2022-09-23T03:52:05.793Z,10.40
2022-09-23T03:54:38.687Z,10.44
2022-09-23T03:57:13.263Z,10.45
2022-09-23T03:59:46.150Z,10.46
2022-09-23T04:02:21.446Z,10.43
2022-09-23T04:04:55.080Z,10.41
2022-09-23T04:07:28.080Z,10.40
2022-09-23T04:10:01.642Z,10.35
2022-09-23T04:12:34.855Z,10.30
2022-09-23T04:15:09.066Z,10.24
2022-09-23T04:17:42.249Z,10.21
2022-09-23T04:20:15.585Z,10.21
2022-09-23T04:22:49.237Z,10.26
2022-09-23T04:25:22.272Z,10.32
2022-09-23T04:27:55.323Z,10.30
2022-09-23T04:30:28.392Z,10.26
2022-09-23T04:33:01.594Z,10.23
2022-09-23T04:35:39.358Z,10.18
2022-09-23T04:38:10.275Z,10.17
2022-09-23T04:40:43.527Z,10.19
2022-09-23T04:43:17.835Z,10.20
2022-09-23T04:46:02.422Z,10.22
2022-09-23T04:48:37.509Z,10.26
2022-09-23T04:51:16.463Z,10.28
2022-09-23T04:53:52.469Z,10.30
2022-09-23T04:56:29.224Z,10.33
2022-09-23T04:59:05.084Z,10.33
2022-09-23T05:01:38.827Z,10.39
2022-09-23T05:04:17.086Z,10.46
2022-09-23T05:06:50.189Z,10.53
2022-09-23T05:09:24.865Z,10.59
2022-09-23T05:11:57.941Z,10.64
2022-09-23T05:14:31.862Z,10.71
2022-09-23T05:17:05.094Z,10.74
2022-09-23T05:19:38.831Z,10.77
2022-09-23T05:22:11.936Z,10.80
2022-09-23T05:24:45.164Z,10.83
2022-09-23T05:27:18.202Z,10.81
2022-09-23T05:29:52.881Z,10.82
2022-09-23T05:32:26.630Z,10.78
2022-09-23T05:34:59.891Z,10.70
2022-09-23T05:37:33.477Z,10.65
2022-09-23T05:40:07.627Z,10.60
2022-09-23T05:42:40.479Z,10.58
2022-09-23T05:45:13.411Z,10.61
2022-09-23T05:47:46.584Z,10.58
2022-09-23T05:50:19.895Z,10.58
2022-09-23T05:52:53.093Z,10.59
2022-09-23T05:55:27.408Z,10.56
2022-09-23T05:58:01.289Z,10.58
2022-09-23T06:00:34.777Z,10.57
2022-09-23T06:03:15.112Z,10.58
2022-09-23T06:05:49.072Z,10.62
2022-09-23T06:08:22.276Z,10.62
2022-09-23T06:10:55.287Z,10.61
2022-09-23T06:13:28.615Z,10.67
2022-09-23T06:16:02.288Z,10.70
2022-09-23T06:18:37.420Z,10.73
2022-09-23T06:21:12.849Z,10.73
2022-09-23T06:23:47.128Z,10.77
2022-09-23T06:26:20.147Z,10.78
2022-09-23T06:28:53.477Z,10.79
2022-09-23T06:31:26.685Z,10.78
2022-09-23T06:34:10.084Z,10.80
2022-09-23T06:36:43.357Z,10.81
2022-09-23T06:39:10.027Z,10.77
2022-09-23T06:41:43.584Z,10.75
2022-09-23T06:44:19.570Z,10.76
2022-09-23T06:46:53.541Z,10.78
2022-09-23T06:49:26.923Z,10.78
2022-09-23T06:51:59.912Z,10.80
2022-09-23T06:54:33.673Z,10.78
2022-09-23T06:57:07.566Z,10.79
2022-09-23T06:59:40.708Z,10.78
2022-09-23T07:02:14.292Z,10.77
2022-09-23T07:04:47.535Z,10.77
2022-09-23T07:07:20.746Z,10.78
2022-09-23T07:09:54.310Z,10.80
2022-09-23T07:12:27.555Z,10.85
2022-09-23T07:15:00.831Z,10.85
2022-09-23T07:17:35.326Z,10.84
2022-09-23T07:20:10.235Z,10.86
2022-09-23T07:22:44.479Z,10.90
2022-09-23T07:25:17.541Z,10.89
2022-09-23T07:27:51.012Z,10.91
2022-09-23T07:30:25.515Z,10.94
2022-09-23T07:32:59.312Z,10.96
2022-09-23T07:35:32.906Z,11.02
2022-09-23T07:38:06.068Z,11.08
2022-09-23T07:40:40.289Z,11.14
2022-09-23T07:43:13.997Z,11.17
2022-09-23T07:45:47.342Z,11.26
2022-09-23T07:48:22.089Z,11.32
2022-09-23T07:50:55.311Z,11.36
2022-09-23T07:53:28.916Z,11.36
2022-09-23T07:56:02.037Z,11.36
2022-09-23T07:58:36.561Z,11.37
2022-09-23T08:01:14.027Z,11.38
2022-09-23T08:03:48.236Z,11.42
2022-09-23T08:06:21.764Z,11.46
2022-09-23T08:08:57.010Z,11.45
2022-09-23T08:11:31.788Z,11.49
2022-09-23T08:14:05.753Z,11.52
2022-09-23T08:16:40.096Z,11.49
2022-09-23T08:19:14.114Z,11.45
2022-09-23T08:21:48.231Z,11.46
2022-09-23T08:24:24.478Z,11.46
2022-09-23T08:26:57.674Z,11.50
2022-09-23T08:29:31.407Z,11.56
2022-09-23T08:32:04.974Z,11.61
2022-09-23T08:34:38.893Z,11.63
2022-09-23T08:37:11.876Z,11.65
2022-09-23T08:39:45.197Z,11.65
2022-09-23T08:42:25.850Z,11.62
2022-09-23T08:45:06.015Z,11.63
2022-09-23T08:48:02.135Z,11.66
2022-09-23T08:50:45.566Z,11.69
2022-09-23T08:53:28.001Z,11.71
2022-09-23T08:56:04.365Z,11.77
2022-09-23T08:59:17.907Z,11.79
2022-09-23T09:02:16.776Z,11.80
2022-09-23T09:04:56.836Z,11.81
2022-09-23T09:07:37.468Z,11.83
2022-09-23T09:10:21.045Z,11.84
2022-09-23T09:13:04.471Z,11.86
2022-09-23T09:15:49.820Z,11.92
2022-09-23T09:18:24.132Z,11.97
2022-09-23T09:21:01.199Z,12.07
2022-09-23T09:24:00.102Z,12.17
2022-09-23T09:26:36.430Z,12.16
2022-09-23T09:29:41.850Z,12.21
2022-09-23T09:32:03.226Z,12.22
2022-09-23T09:34:43.713Z,12.29
2022-09-23T09:37:27.293Z,12.38
2022-09-23T09:40:00.772Z,12.47
2022-09-23T09:42:43.069Z,12.54
2022-09-23T09:45:46.695Z,12.62
2022-09-23T09:48:58.054Z,12.70
2022-09-23T09:51:31.872Z,12.78
2022-09-23T09:54:25.462Z,12.84
2022-09-23T09:56:58.484Z,12.82
2022-09-23T09:59:32.028Z,12.84
2022-09-23T10:02:27.726Z,12.96
2022-09-23T10:05:08.126Z,13.12
2022-09-23T10:07:41.385Z,13.34
2022-09-23T10:10:32.778Z,13.50
2022-09-23T10:13:15.324Z,13.66
2022-09-23T10:15:48.740Z,13.71
2022-09-23T10:18:33.371Z,13.71
2022-09-23T10:21:14.852Z,13.74
2022-09-23T10:23:54.419Z,13.79
2022-09-23T10:26:34.158Z,13.83
2022-09-23T10:29:32.668Z,13.88
2022-09-23T10:32:30.457Z,13.93
2022-09-23T10:35:14.338Z,13.90
2022-09-23T10:38:01.450Z,13.93
2022-09-23T10:40:56.624Z,13.93
2022-09-23T10:44:15.511Z,13.82
2022-09-23T10:47:01.848Z,13.80
2022-09-23T10:50:05.272Z,13.85
2022-09-23T10:52:46.930Z,13.97
2022-09-23T10:55:36.523Z,14.15
2022-09-23T10:58:47.590Z,14.33
2022-09-23T11:01:40.001Z,14.30
2022-09-23T11:04:59.662Z,14.07
2022-09-23T11:07:41.854Z,14.00
2022-09-23T11:10:46.033Z,14.11
2022-09-23T11:13:31.000Z,14.17
2022-09-23T11:16:23.902Z,14.21
2022-09-23T11:19:13.240Z,14.29
2022-09-23T11:22:18.411Z,14.36
2022-09-23T11:25:10.704Z,14.46
2022-09-23T11:28:20.685Z,14.59
2022-09-23T11:31:35.268Z,14.72
2022-09-23T11:34:43.564Z,14.79
2022-09-23T11:37:20.477Z,14.92
2022-09-23T11:40:09.142Z,14.90
2022-09-23T11:42:59.706Z,14.87
2022-09-23T11:45:49.834Z,14.77
2022-09-23T11:48:30.211Z,14.77
2022-09-23T11:51:16.456Z,14.77
2022-09-23T11:53:57.579Z,14.78
2022-09-23T11:56:40.121Z,14.85
2022-09-23T11:59:40.577Z,14.84
2022-09-23T12:02:36.695Z,14.75
2022-09-23T12:05:16.971Z,14.73
2022-09-23T12:08:18.238Z,14.69
2022-09-23T12:11:18.739Z,14.65
2022-09-23T12:14:16.386Z,14.59
2022-09-23T12:17:29.077Z,14.51
2022-09-23T12:20:09.967Z,14.52
2022-09-23T12:23:39.011Z,14.56
2022-09-23T12:26:18.110Z,14.67
2022-09-23T12:28:53.366Z,14.80
2022-09-23T12:31:29.292Z,14.90
2022-09-23T12:34:04.670Z,14.96
2022-09-23T12:36:38.692Z,14.99
2022-09-23T12:39:28.638Z,14.96
2022-09-23T12:42:05.331Z,14.92
2022-09-23T12:44:43.756Z,14.83
2022-09-23T12:47:30.053Z,14.79
2022-09-23T12:50:05.755Z,14.74
2022-09-23T12:52:39.427Z,14.71
2022-09-23T12:55:38.527Z,14.69
2022-09-23T12:58:46.464Z,14.72
2022-09-23T13:01:21.970Z,14.83
2022-09-23T13:04:15.764Z,14.93
2022-09-23T13:07:10.327Z,14.96
2022-09-23T13:09:46.918Z,15.03
2022-09-23T13:12:27.047Z,15.07
2022-09-23T13:15:06.552Z,15.11
2022-09-23T13:17:41.504Z,15.16
2022-09-23T13:20:38.566Z,15.23
2022-09-23T13:23:31.546Z,15.20
2022-09-23T13:26:13.059Z,15.19
2022-09-23T13:28:58.398Z,15.19
2022-09-23T13:31:31.573Z,15.23
2022-09-23T13:34:07.836Z,15.25
2022-09-23T13:36:48.884Z,15.24
2022-09-23T13:39:27.838Z,15.21
2022-09-23T13:42:05.585Z,15.23
2022-09-23T13:44:41.257Z,15.31
2022-09-23T13:47:15.989Z,15.32
2022-09-23T13:49:49.250Z,15.31
2022-09-23T13:52:30.172Z,15.30
2022-09-23T13:55:03.387Z,15.30
2022-09-23T13:57:37.916Z,15.25
2022-09-23T14:00:22.607Z,15.22
2022-09-23T14:02:55.668Z,15.13
2022-09-23T14:05:33.055Z,15.06
2022-09-23T14:08:06.126Z,15.03
2022-09-23T14:10:40.720Z,15.02
2022-09-23T14:13:28.868Z,14.99
2022-09-23T14:16:04.487Z,14.94
2022-09-23T14:18:47.219Z,14.87
2022-09-23T14:21:40.815Z,14.78
2022-09-23T14:24:33.218Z,14.74
2022-09-23T14:27:16.069Z,14.70
2022-09-23T14:29:51.274Z,14.67
2022-09-23T14:32:28.654Z,14.64
2022-09-23T14:35:09.484Z,14.63
2022-09-23T14:38:02.878Z,14.67
2022-09-23T14:40:54.148Z,14.67
2022-09-23T14:43:29.370Z,14.65
2022-09-23T14:46:02.513Z,14.63
2022-09-23T14:48:36.635Z,14.59
2022-09-23T14:51:16.727Z,14.57
2022-09-23T14:53:49.005Z,14.57
2022-09-23T14:56:25.243Z,14.55
2022-09-23T14:59:02.004Z,14.50
2022-09-23T15:01:39.079Z,14.47
2022-09-23T15:04:22.843Z,14.46
2022-09-23T15:06:59.044Z,14.40
2022-09-23T15:09:36.468Z,14.37
2022-09-23T15:12:20.538Z,14.31
2022-09-23T15:14:57.020Z,14.22
2022-09-23T15:17:36.433Z,14.13
2022-09-23T15:20:17.164Z,14.06
2022-09-23T15:22:55.302Z,14.00
2022-09-23T15:25:36.671Z,13.93
2022-09-23T15:28:17.571Z,13.83
2022-09-23T15:30:51.929Z,13.68
2022-09-23T15:33:26.650Z,13.54
2022-09-23T15:35:59.613Z,13.44
2022-09-23T15:38:33.358Z,13.38
2022-09-23T15:41:06.992Z,13.34
2022-09-23T15:43:43.417Z,13.33
2022-09-23T15:46:28.485Z,13.27
2022-09-23T15:49:05.240Z,13.27
2022-09-23T15:51:38.691Z,13.24
2022-09-23T15:54:15.209Z,13.18
2022-09-23T15:56:48.755Z,13.11
2022-09-23T15:59:21.846Z,13.08
2022-09-23T16:01:55.397Z,13.04
2022-09-23T16:04:28.619Z,13.01
2022-09-23T16:07:03.299Z,12.96
2022-09-23T16:09:36.542Z,12.95
2022-09-23T16:12:12.536Z,12.92
2022-09-23T16:14:47.022Z,12.87
2022-09-23T16:17:20.225Z,12.82
2022-09-23T16:19:53.381Z,12.79
2022-09-23T16:22:26.848Z,12.78
2022-09-23T16:24:59.906Z,12.74
2022-09-23T16:27:34.380Z,12.72
2022-09-23T16:30:08.866Z,12.71
2022-09-23T16:32:43.618Z,12.67
2022-09-23T16:35:17.063Z,12.58
2022-09-23T16:37:51.183Z,12.51
2022-09-23T16:40:26.412Z,12.47
2022-09-23T16:43:01.127Z,12.42
2022-09-23T16:45:35.061Z,12.34
2022-09-23T16:48:08.065Z,12.27
2022-09-23T16:50:44.596Z,12.21
2022-09-23T16:53:18.138Z,12.16
2022-09-23T16:55:52.815Z,12.10
2022-09-23T16:58:26.779Z,12.11
2022-09-23T17:01:18.180Z,12.15
2022-09-23T17:03:51.557Z,12.18
2022-09-23T17:06:26.256Z,12.16
2022-09-23T17:09:00.966Z,12.15
2022-09-23T17:11:34.395Z,12.15
2022-09-23T17:14:07.916Z,12.13
2022-09-23T17:16:41.130Z,12.13
2022-09-23T17:19:14.765Z,12.08
2022-09-23T17:21:47.754Z,12.06
2022-09-23T17:24:21.108Z,12.04
2022-09-23T17:26:54.543Z,12.06
2022-09-23T17:29:29.407Z,12.05
2022-09-23T17:32:04.670Z,12.05
2022-09-23T17:34:37.723Z,12.04
2022-09-23T17:37:11.305Z,12.04
2022-09-23T17:39:46.518Z,12.05
2022-09-23T17:42:20.245Z,12.06
2022-09-23T17:44:54.278Z,12.05
2022-09-23T17:47:27.842Z,12.02
2022-09-23T17:50:01.794Z,12.02
2022-09-23T17:52:35.008Z,11.97
2022-09-23T17:55:09.867Z,11.91
2022-09-23T17:57:42.276Z,11.86
2022-09-23T18:00:16.092Z,11.82
2022-09-23T18:02:54.175Z,11.79
2022-09-23T18:05:27.443Z,11.77
2022-09-23T18:08:05.264Z,11.74
2022-09-23T18:10:36.751Z,11.73
2022-09-23T18:13:10.603Z,11.75
2022-09-23T18:15:44.294Z,11.75
2022-09-23T18:18:17.394Z,11.71
2022-09-23T18:20:51.196Z,11.68
2022-09-23T18:23:26.184Z,11.62
2022-09-23T18:25:59.829Z,11.58
2022-09-23T18:28:34.994Z,11.54
2022-09-23T18:31:08.737Z,11.49
2022-09-23T18:33:42.582Z,11.48
2022-09-23T18:36:15.974Z,11.48
2022-09-23T18:38:50.929Z,11.47
2022-09-23T18:41:24.772Z,11.43
2022-09-23T18:43:58.069Z,11.39
2022-09-23T18:46:32.458Z,11.37
2022-09-23T18:49:24.256Z,11.32
2022-09-23T18:51:59.630Z,11.26
2022-09-23T18:54:32.783Z,11.21
2022-09-23T18:57:05.909Z,11.18
2022-09-23T18:59:39.700Z,11.16
2022-09-23T19:02:13.891Z,11.15
2022-09-23T19:04:47.708Z,11.15
2022-09-23T19:07:20.867Z,11.16
2022-09-23T19:09:54.009Z,11.17
2022-09-23T19:12:27.588Z,11.18
2022-09-23T19:15:01.616Z,11.16
2022-09-23T19:17:35.204Z,11.13
2022-09-23T19:20:10.841Z,11.12
2022-09-23T19:22:48.207Z,11.13
2022-09-23T19:25:21.812Z,11.11
2022-09-23T19:27:55.061Z,11.06
2022-09-23T19:30:29.853Z,11.02
2022-09-23T19:33:03.082Z,10.96
2022-09-23T19:35:40.811Z,10.93
2022-09-23T19:38:15.102Z,10.90
2022-09-23T19:40:51.479Z,10.86
2022-09-23T19:43:26.143Z,10.83
2022-09-23T19:45:59.424Z,10.81
2022-09-23T19:48:33.352Z,10.82
2022-09-23T19:51:07.226Z,10.78
2022-09-23T19:53:43.499Z,10.75
2022-09-23T19:56:19.165Z,10.72
2022-09-23T19:58:55.967Z,10.73
2022-09-23T20:01:30.908Z,10.72
2022-09-23T20:04:04.627Z,10.74
2022-09-23T20:06:41.236Z,10.74
2022-09-23T20:09:14.192Z,10.74
2022-09-23T20:11:48.285Z,10.71
2022-09-23T20:14:24.778Z,10.65
2022-09-23T20:17:00.731Z,10.57
2022-09-23T20:19:33.911Z,10.52
2022-09-23T20:22:27.446Z,10.51
2022-09-23T20:25:00.917Z,10.49
2022-09-23T20:27:34.707Z,10.44
2022-09-23T20:30:09.121Z,10.38
2022-09-23T20:32:44.807Z,10.32
2022-09-23T20:35:17.838Z,10.28
2022-09-23T20:37:51.230Z,10.27
2022-09-23T20:40:24.616Z,10.29
2022-09-23T20:42:59.332Z,10.30
2022-09-23T20:45:32.310Z,10.31
2022-09-23T20:48:07.530Z,10.29
2022-09-23T20:50:42.103Z,10.27
2022-09-23T20:53:15.690Z,10.28
2022-09-23T20:55:54.151Z,10.24
2022-09-23T20:58:30.161Z,10.22
2022-09-23T21:01:14.725Z,10.21
2022-09-23T21:03:50.623Z,10.20
2022-09-23T21:06:26.070Z,10.18
2022-09-23T21:08:59.607Z,10.16
2022-09-23T21:11:32.879Z,10.16
2022-09-23T21:14:06.219Z,10.14
2022-09-23T21:16:39.739Z,10.16
2022-09-23T21:19:12.781Z,10.16
2022-09-23T21:21:46.570Z,10.20
2022-09-23T21:26:55.363Z,10.21
2022-09-23T21:29:28.360Z,10.20
2022-09-23T21:32:01.376Z,10.16
2022-09-23T21:34:34.477Z,10.13
2022-09-23T21:37:08.615Z,10.07
2022-09-23T21:39:41.284Z,10.04
2022-09-23T21:42:14.226Z,10.00
2022-09-23T21:44:47.239Z,9.94
2022-09-23T21:47:20.287Z,9.93
2022-09-23T21:49:53.827Z,9.94
2022-09-23T21:52:27.371Z,9.92
2022-09-23T21:55:00.508Z,9.88
2022-09-23T21:57:34.039Z,9.84
2022-09-23T22:00:10.199Z,9.79
2022-09-23T22:02:43.261Z,9.75
2022-09-23T22:05:16.650Z,9.77
2022-09-23T22:07:49.577Z,9.80
2022-09-23T22:10:23.155Z,9.80
2022-09-23T22:12:56.379Z,9.75
2022-09-23T22:15:29.728Z,9.70
2022-09-23T22:18:03.239Z,9.68
2022-09-23T22:20:37.523Z,9.65
2022-09-23T22:23:10.873Z,9.61
2022-09-23T22:25:44.441Z,9.56
2022-09-23T22:28:35.859Z,9.51
2022-09-23T22:31:27.905Z,9.47
2022-09-23T22:34:01.337Z,9.44
2022-09-23T22:36:34.970Z,9.45
2022-09-23T22:39:08.515Z,9.46
2022-09-23T22:41:41.878Z,9.45
2022-09-23T22:44:15.205Z,9.44
2022-09-23T22:46:49.543Z,9.43
2022-09-23T22:49:22.616Z,9.41
2022-09-23T22:51:56.011Z,9.40
2022-09-23T22:54:34.145Z,9.41
2022-09-23T22:57:09.312Z,9.41
2022-09-23T22:59:44.505Z,9.39
2022-09-23T23:02:23.905Z,9.36
2022-09-23T23:04:58.617Z,9.35
2022-09-23T23:07:32.368Z,9.34
2022-09-23T23:10:07.548Z,9.33
2022-09-23T23:12:41.981Z,9.34
2022-09-23T23:15:15.917Z,9.34
2022-09-23T23:17:50.433Z,9.30
2022-09-23T23:20:23.939Z,9.28
2022-09-23T23:22:57.132Z,9.22
2022-09-23T23:25:30.450Z,9.19
2022-09-23T23:28:05.343Z,9.17
2022-09-23T23:30:38.343Z,9.15
2022-09-23T23:33:11.749Z,9.16
2022-09-23T23:35:53.488Z,9.13
2022-09-23T23:38:26.725Z,9.13
2022-09-23T23:41:04.255Z,9.15
2022-09-23T23:43:37.648Z,9.14
2022-09-23T23:46:12.258Z,9.11
2022-09-23T23:48:46.941Z,9.10
2022-09-23T23:51:20.069Z,9.08
2022-09-23T23:53:54.258Z,9.06
2022-09-23T23:56:29.106Z,9.06
2022-09-23T23:59:04.185Z,9.04
